createdAt,value
2019-05-25T00:00:38.877Z,93105.44
2019-05-25T00:10:33.166Z,93090.78
2019-05-25T00:20:33.105Z,93081.95
2019-05-25T00:30:39.904Z,93090.58
2019-05-25T00:40:30.678Z,93091.91
2019-05-25T00:50:32.632Z,93087.76
2019-05-25T01:00:33.956Z,93079.44
2019-05-25T01:10:33.243Z,93074.20
2019-05-25T01:20:32.192Z,93077.92
2019-05-25T01:30:32.732Z,93075.02
2019-05-25T01:40:33.085Z,93069.80
2019-05-25T01:50:30.610Z,93058.71
2019-05-25T02:00:31.753Z,93056.41
2019-05-25T02:15:33.754Z,93069.41
2019-05-25T02:30:32.741Z,93074.59
2019-05-25T02:40:33.204Z,93062.34
2019-05-25T02:50:33.592Z,93063.98
2019-05-25T03:00:34.921Z,93062.63
2019-05-25T03:10:33.214Z,93064.92
2019-05-25T03:20:32.819Z,93073.80
2019-05-25T03:30:37.232Z,93079.24
2019-05-25T03:35:33.599Z,93078.20
2019-05-25T03:40:33.165Z,93081.44
2019-05-25T03:45:34.051Z,93077.85
2019-05-25T03:50:33.174Z,93077.31
2019-05-25T03:55:32.574Z,93085.44
2019-05-25T04:00:38.175Z,93085.12
2019-05-25T04:05:32.645Z,93084.77
2019-05-25T04:10:33.161Z,93087.97
2019-05-25T04:15:34.863Z,93091.73
2019-05-25T04:20:34.054Z,93092.97
2019-05-25T04:25:33.064Z,93104.30
2019-05-25T04:30:33.698Z,93092.47
2019-05-25T04:40:33.094Z,93091.23
2019-05-25T04:50:32.126Z,93103.14
2019-05-25T04:55:30.626Z,93115.28
2019-05-25T05:00:31.143Z,93107.52
2019-05-25T05:05:33.093Z,93110.81
2019-05-25T05:10:33.699Z,93112.85
2019-05-25T05:15:32.691Z,93123.77
2019-05-25T05:20:33.123Z,93124.80
2019-05-25T05:25:32.614Z,93125.91
2019-05-25T05:30:34.087Z,93122.52
2019-05-25T05:35:33.710Z,93128.09
2019-05-25T05:40:33.169Z,93132.02
2019-05-25T05:45:34.643Z,93131.50
2019-05-25T05:50:34.944Z,93127.99
2019-05-25T05:55:33.712Z,93130.17
2019-05-25T06:00:33.738Z,93123.19
2019-05-25T06:05:33.096Z,93128.30
2019-05-25T06:10:33.101Z,93127.75
2019-05-25T06:15:32.621Z,93126.01
2019-05-25T06:20:33.088Z,93129.91
2019-05-25T06:25:33.113Z,93137.31
2019-05-25T06:30:34.088Z,93149.37
2019-05-25T06:35:32.691Z,93154.98
2019-05-25T06:40:33.160Z,93155.11
2019-05-25T06:50:34.425Z,93165.31
2019-05-25T07:00:33.743Z,93167.69
2019-05-25T07:05:32.627Z,93168.21
2019-05-25T07:10:33.337Z,93167.98
2019-05-25T07:15:32.703Z,93166.36
2019-05-25T07:20:33.226Z,93175.14
2019-05-25T07:25:33.223Z,93174.50
2019-05-25T07:30:32.304Z,93185.92
2019-05-25T07:35:33.674Z,93188.93
2019-05-25T07:40:33.074Z,93197.38
2019-05-25T07:45:33.113Z,93187.90
2019-05-25T07:50:32.802Z,93180.98
2019-05-25T07:55:34.894Z,93179.68
2019-05-25T08:00:36.740Z,93182.96
2019-05-25T08:05:32.639Z,93182.73
2019-05-25T08:10:30.619Z,93182.58
2019-05-25T08:15:33.279Z,93185.88
2019-05-25T08:20:33.086Z,93176.73
2019-05-25T08:25:35.580Z,93184.08
2019-05-25T08:30:33.183Z,93188.48
2019-05-25T08:35:32.087Z,93185.55
2019-05-25T08:40:32.579Z,93186.34
2019-05-25T08:45:33.221Z,93185.13
2019-05-25T08:50:38.367Z,93188.82
2019-05-25T08:55:32.414Z,93183.62
2019-05-25T09:00:33.808Z,93186.07
2019-05-25T09:05:33.074Z,93190.95
2019-05-25T09:10:51.383Z,93191.14
2019-05-25T09:15:32.641Z,93194.26
2019-05-25T09:20:32.623Z,93193.50
2019-05-25T09:25:33.107Z,93199.63
2019-05-25T09:30:32.620Z,93201.00
2019-05-25T09:35:32.659Z,93196.52
2019-05-25T09:40:33.417Z,93202.23
2019-05-25T09:45:33.143Z,93203.64
2019-05-25T09:50:35.724Z,93195.86
2019-05-25T09:55:33.309Z,93200.89
2019-05-25T10:00:34.098Z,93197.06
2019-05-25T10:05:33.085Z,93198.06
2019-05-25T10:10:38.776Z,93201.83
2019-05-25T10:15:32.835Z,93206.14
2019-05-25T10:20:32.612Z,93203.91
2019-05-25T10:25:33.192Z,93205.40
2019-05-25T10:30:32.581Z,93197.63
2019-05-25T10:35:32.112Z,93205.47
2019-05-25T10:40:32.922Z,93196.71
2019-05-25T10:45:33.235Z,93196.69
2019-05-25T10:50:33.228Z,93190.23
2019-05-25T10:55:33.152Z,93186.12
2019-05-25T11:00:34.119Z,93190.08
2019-05-25T11:05:33.282Z,93180.11
2019-05-25T11:10:33.217Z,93177.40
2019-05-25T11:15:32.605Z,93177.53
2019-05-25T11:20:33.099Z,93166.95
2019-05-25T11:25:32.284Z,93167.34
2019-05-25T11:30:32.173Z,93151.95
2019-05-25T11:35:32.670Z,93150.39
2019-05-25T11:40:33.188Z,93146.56
2019-05-25T11:45:32.145Z,93142.56
2019-05-25T11:50:33.290Z,93136.72
2019-05-25T11:55:32.585Z,93136.35
2019-05-25T12:00:34.041Z,93134.34
2019-05-25T12:05:33.150Z,93134.14
2019-05-25T12:10:33.658Z,93130.98
2019-05-25T12:15:33.242Z,93127.35
2019-05-25T12:20:33.108Z,93123.28
2019-05-25T12:25:32.636Z,93120.42
2019-05-25T12:30:41.060Z,93122.94
2019-05-25T12:35:32.287Z,93120.11
2019-05-25T12:40:33.148Z,93118.84
2019-05-25T12:45:42.107Z,93115.81
2019-05-25T12:50:33.239Z,93114.92
2019-05-25T12:55:33.722Z,93109.27
2019-05-25T13:00:55.639Z,93109.84
2019-05-25T13:05:34.609Z,93112.55
2019-05-25T13:10:32.254Z,93107.66
2019-05-25T13:15:32.602Z,93113.96
2019-05-25T13:20:36.147Z,93119.88
2019-05-25T13:25:33.177Z,93120.06
2019-05-25T13:30:33.106Z,93114.43
2019-05-25T13:35:33.111Z,93112.86
2019-05-25T13:40:33.200Z,93113.55
2019-05-25T13:45:33.185Z,93112.28
2019-05-25T13:50:33.138Z,93113.84
2019-05-25T13:55:33.105Z,93111.52
2019-05-25T14:00:34.091Z,93111.37
2019-05-25T14:10:33.435Z,93131.09
2019-05-25T14:15:32.637Z,93143.93
2019-05-25T14:20:33.653Z,93150.33
2019-05-25T14:25:32.588Z,93171.09
2019-05-25T14:30:32.184Z,93171.64
2019-05-25T14:35:30.586Z,93176.03
2019-05-25T14:40:32.693Z,93174.29
2019-05-25T14:50:33.841Z,93186.27
2019-05-25T14:55:33.178Z,93184.11
2019-05-25T15:00:36.264Z,93186.74
2019-05-25T15:05:36.182Z,93195.56
2019-05-25T15:10:33.135Z,93205.55
2019-05-25T15:15:32.790Z,93200.31
2019-05-25T15:20:33.634Z,93199.52
2019-05-25T15:25:36.263Z,93207.94
2019-05-25T15:30:35.673Z,93210.95
2019-05-25T15:35:32.635Z,93208.38
2019-05-25T15:40:32.597Z,93218.77
2019-05-25T15:45:33.256Z,93219.09
2019-05-25T15:55:33.316Z,93216.49
2019-05-25T16:05:39.824Z,93229.59
2019-05-25T16:10:36.860Z,93225.11
2019-05-25T16:15:35.594Z,93224.38
2019-05-25T16:20:42.821Z,93228.64
2019-05-25T16:25:32.918Z,93229.49
2019-05-25T16:30:33.330Z,93236.31
2019-05-25T16:35:32.860Z,93239.63
2019-05-25T16:40:33.577Z,93248.47
2019-05-25T16:45:32.594Z,93245.72
2019-05-25T16:50:32.632Z,93252.04
2019-05-25T16:55:32.585Z,93254.64
2019-05-25T17:00:33.721Z,93261.14
2019-05-25T17:05:33.168Z,93256.20
2019-05-25T17:10:33.923Z,93247.19
2019-05-25T17:15:33.111Z,93258.27
2019-05-25T17:20:33.097Z,93261.59
2019-05-25T17:25:33.601Z,93263.37
2019-05-25T17:30:41.604Z,93274.44
2019-05-25T17:35:33.250Z,93270.63
2019-05-25T17:40:33.139Z,93272.72
2019-05-25T17:45:33.616Z,93273.75
2019-05-25T17:50:33.219Z,93278.72
2019-05-25T17:55:33.079Z,93279.21
2019-05-25T18:00:43.381Z,93282.59
2019-05-25T18:05:32.360Z,93287.38
2019-05-25T18:10:49.023Z,93284.66
2019-05-25T18:15:42.769Z,93285.53
2019-05-25T18:20:33.243Z,93291.19
2019-05-25T18:25:33.257Z,93302.81
2019-05-25T18:30:39.223Z,93294.02
2019-05-25T18:35:33.733Z,93312.00
2019-05-25T18:40:33.627Z,93310.61
2019-05-25T18:45:33.298Z,93322.16
2019-05-25T18:50:33.609Z,93325.61
2019-05-25T19:00:33.701Z,93331.09
2019-05-25T19:10:33.323Z,93334.52
2019-05-25T19:20:33.224Z,93348.57
2019-05-25T19:30:32.161Z,93359.58
2019-05-25T19:40:33.096Z,93368.75
2019-05-25T19:50:35.570Z,93371.62
2019-05-25T20:00:33.478Z,93376.30
2019-05-25T20:10:32.686Z,93375.74
2019-05-25T20:20:33.466Z,93375.48
2019-05-25T20:30:33.429Z,93373.05
2019-05-25T20:40:33.130Z,93376.05
2019-05-25T20:50:32.645Z,93368.36
2019-05-25T21:00:33.777Z,93364.50
2019-05-25T21:10:33.672Z,93368.88
2019-05-25T21:20:33.144Z,93372.80
2019-05-25T21:30:34.081Z,93370.32
2019-05-25T21:40:34.630Z,93361.66
2019-05-25T21:50:32.745Z,93366.23
2019-05-25T22:00:40.693Z,93353.72
2019-05-25T22:10:33.184Z,93360.81
2019-05-25T22:20:33.206Z,93358.62
2019-05-25T22:30:30.648Z,93348.68
2019-05-25T22:40:32.688Z,93346.81
2019-05-25T22:50:33.172Z,93342.72
2019-05-25T23:00:33.859Z,93351.52
2019-05-25T23:15:33.130Z,93341.42
2019-05-25T23:30:33.092Z,93358.08
2019-05-25T23:40:33.180Z,93358.38
2019-05-25T23:50:33.109Z,93354.27
